This is the latest recevied weather packets stored in our database for station/object F6JSP-13. If no packets are shown the sender has not sent any weather packets the latest 10 day(s).
| Time | Temp. | Humidity | Pressure | Rain* | Wind** | Luminosity | Snow |
|---|---|---|---|---|---|---|---|
| 1777382706 | 21.11° C | 36% | 1012.6 hPa | 0 mm | - | 692 W/m² | - |
| 1777381206 | 20.56° C | 39% | 1012.7 hPa | 0 mm | - | 724 W/m² | - |
| 1777380906 | 20° C | 41% | 1012.7 hPa | 0 mm | - | 718 W/m² | - |
| 1777375806 | 19.44° C | 43% | 1013.6 hPa | 0 mm | - | 514 W/m² | - |
| 1777375506 | 19.44° C | 44% | 1013.6 hPa | 0 mm | - | 752 W/m² | - |
| 1777375207 | 19.44° C | 46% | 1013.8 hPa | 0 mm | - | 755 W/m² | - |
| 1777374306 | 18.89° C | 47% | 1013.7 hPa | 0 mm | - | 727 W/m² | - |
| 1777371607 | 16.67° C | 58% | 1014.2 hPa | 0 mm | - | 619 W/m² | - |
| 1777370105 | 15° C | 61% | 1014.6 hPa | 0 mm | - | 314 W/m² | - |
| 1777369505 | 15° C | 61% | 1014.5 hPa | 0 mm | - | 247 W/m² | - |
| 1777368606 | 15° C | 62% | 1014.4 hPa | 0 mm | - | 237 W/m² | - |
| 1777366506 | 13.33° C | 65% | 1014.7 hPa | 0 mm | - | 232 W/m² | - |
| 1777366206 | 12.78° C | 65% | 1014.5 hPa | 0 mm | - | 208 W/m² | - |
| 1777364406 | 13.33° C | 63% | 1014.9 hPa | 0 mm | - | 329 W/m² | - |
| 1777363506 | 12.78° C | 65% | 1014.9 hPa | 0 mm | - | 283 W/m² | - |
| 1777360506 | 11.67° C | 67% | 1014.6 hPa | 0 mm | - | 201 W/m² | - |
| 1777359605 | 11.11° C | 68% | 1014.9 hPa | 0 mm | - | 144 W/m² | - |
| 1777356905 | 11.11° C | 67% | 1014.6 hPa | 0 mm | - | 89 W/m² | - |
| 1777352405 | 9.44° C | 74% | 1014.2 hPa | 0 mm | - | 4 W/m² | - |
| 1777352105 | 9.44° C | 74% | 1014.5 hPa | 0 mm | - | 2 W/m² | - |
| 1777350006 | 9.44° C | 75% | 1014.4 hPa | 0 mm | - | 0 W/m² | - |
| 1777346105 | 9.44° C | 77% | 1015.2 hPa | 0 mm | - | 0 W/m² | - |
| 1777342806 | 8.33° C | 80% | 1015.4 hPa | 0 mm | - | 0 W/m² | - |
| 1777341905 | 9.44° C | 75% | 1015.5 hPa | 0 mm | - | 0 W/m² | - |
| 1777340405 | 10° C | 74% | 1015.4 hPa | 0 mm | - | 0 W/m² | - |
* Rain latest hour (hover to see other rain measurements)
** Current wind speed in m/s (hover to see current wind gust speed)